createdAt,value
2019-04-10T00:00:35.106Z,11.88
2019-04-10T00:05:32.262Z,11.58
2019-04-10T00:10:29.938Z,11.69
2019-04-10T00:15:27.177Z,11.85
2019-04-10T00:20:27.109Z,11.87
2019-04-10T00:25:24.432Z,11.90
2019-04-10T00:30:23.486Z,12.07
2019-04-10T00:35:21.451Z,11.92
2019-04-10T00:40:20.113Z,11.90
2019-04-10T00:45:19.930Z,12.05
2019-04-10T00:50:18.151Z,12.22
2019-04-10T00:55:15.391Z,12.10
2019-04-10T01:00:12.806Z,12.11
2019-04-10T01:05:13.142Z,12.23
2019-04-10T01:10:10.847Z,12.12
2019-04-10T01:15:09.952Z,12.23
2019-04-10T01:20:07.830Z,12.05
2019-04-10T01:25:06.139Z,12.08
2019-04-10T01:30:07.038Z,12.03
2019-04-10T01:35:05.891Z,12.12
2019-04-10T01:40:08.971Z,12.15
2019-04-10T01:45:06.086Z,11.78
2019-04-10T01:50:04.508Z,11.85
2019-04-10T01:55:19.247Z,11.88
2019-04-10T02:00:00.562Z,11.82
2019-04-10T02:04:59.073Z,11.75
2019-04-10T02:09:56.267Z,11.69
2019-04-10T02:14:54.305Z,11.26
2019-04-10T02:19:51.546Z,11.30
2019-04-10T02:24:49.371Z,11.04
2019-04-10T02:29:48.264Z,11.04
2019-04-10T02:34:46.821Z,11.13
2019-04-10T02:39:47.786Z,11.24
2019-04-10T02:44:45.900Z,11.10
2019-04-10T02:49:44.458Z,11.27
2019-04-10T02:54:41.897Z,11.20
2019-04-10T02:59:40.911Z,11.18
2019-04-10T03:04:37.970Z,10.93
2019-04-10T03:09:49.579Z,10.91
2019-04-10T03:14:36.830Z,10.90
2019-04-10T03:19:35.848Z,10.99
2019-04-10T03:24:32.882Z,10.88
2019-04-10T03:29:30.012Z,10.61
2019-04-10T03:34:31.359Z,10.67
2019-04-10T03:39:31.693Z,10.26
2019-04-10T03:44:28.389Z,10.34
2019-04-10T03:49:25.589Z,10.21
2019-04-10T03:54:24.946Z,10.27
2019-04-10T03:59:22.367Z,10.09
2019-04-10T04:04:19.689Z,10.22
2019-04-10T04:09:17.624Z,10.05
2019-04-10T04:14:18.144Z,10.22
2019-04-10T04:19:15.829Z,10.28
2019-04-10T04:24:12.948Z,10.09
2019-04-10T04:29:10.075Z,10.35
2019-04-10T04:34:07.129Z,10.06
2019-04-10T04:39:18.109Z,10.43
2019-04-10T04:44:04.249Z,10.43
2019-04-10T04:49:03.204Z,10.19
2019-04-10T04:54:00.997Z,10.15
2019-04-10T04:58:59.346Z,10.12
2019-04-10T05:03:58.534Z,10.30
2019-04-10T05:08:56.815Z,10.33
2019-04-10T05:13:55.839Z,10.08
2019-04-10T05:18:54.023Z,10.06
2019-04-10T05:23:51.323Z,10.25
2019-04-10T05:28:48.671Z,10.06
2019-04-10T05:33:45.732Z,10.10
2019-04-10T05:38:44.649Z,10.23
2019-04-10T05:43:42.530Z,10.31
2019-04-10T05:48:39.855Z,10.29
2019-04-10T05:53:40.833Z,10.48
2019-04-10T05:58:40.852Z,10.34
2019-04-10T06:03:40.930Z,10.39
2019-04-10T06:08:39.328Z,10.27
2019-04-10T06:13:36.818Z,10.36
2019-04-10T06:18:37.460Z,10.65
2019-04-10T06:23:41.382Z,10.75
2019-04-10T06:28:42.370Z,10.71
2019-04-10T06:33:42.513Z,10.60
2019-04-10T06:38:39.713Z,10.37
2019-04-10T06:43:39.971Z,10.41
2019-04-10T06:48:38.331Z,10.44
2019-04-10T06:53:35.625Z,10.57
2019-04-10T06:58:33.912Z,10.74
2019-04-10T07:03:45.726Z,11.04
2019-04-10T07:08:34.238Z,10.94
2019-04-10T07:13:32.151Z,10.84
2019-04-10T07:18:30.744Z,10.93
2019-04-10T07:23:32.351Z,10.76
2019-04-10T07:28:30.391Z,10.85
2019-04-10T07:33:34.919Z,11.05
2019-04-10T07:38:37.205Z,11.13
2019-04-10T07:48:56.536Z,11.67
2019-04-10T07:53:56.025Z,11.69
2019-04-10T07:58:53.816Z,11.24
2019-04-10T08:03:52.391Z,11.58
2019-04-10T08:08:51.533Z,11.54
2019-04-10T08:13:51.408Z,11.24
2019-04-10T08:18:49.850Z,11.51
2019-04-10T08:23:49.086Z,11.43
2019-04-10T08:28:46.170Z,11.28
2019-04-10T08:33:44.060Z,11.00
2019-04-10T08:38:43.670Z,11.77
2019-04-10T08:43:42.899Z,11.70
2019-04-10T08:48:41.369Z,11.93
2019-04-10T08:53:38.383Z,11.82
2019-04-10T08:58:35.514Z,11.78
2019-04-10T09:03:35.051Z,12.10
2019-04-10T09:08:32.904Z,11.70
2019-04-10T09:13:33.311Z,12.51
2019-04-10T09:18:33.504Z,12.66
2019-04-10T09:23:42.010Z,12.52
2019-04-10T09:28:30.711Z,11.96
2019-04-10T09:33:32.509Z,12.03
2019-04-10T09:38:30.575Z,12.51
2019-04-10T09:43:29.519Z,12.56
2019-04-10T09:48:28.558Z,12.66
2019-04-10T09:53:26.746Z,12.84
2019-04-10T09:58:26.186Z,12.55
2019-04-10T10:03:24.802Z,12.58
2019-04-10T10:08:24.867Z,12.61
2019-04-10T10:13:25.626Z,12.42
2019-04-10T10:18:23.852Z,12.04
2019-04-10T10:23:21.980Z,12.11
2019-04-10T10:28:18.995Z,11.46
2019-04-10T10:33:17.322Z,11.87
2019-04-10T10:38:14.905Z,12.06
2019-04-10T10:43:16.179Z,11.96
2019-04-10T10:48:17.971Z,12.30
2019-04-10T10:53:16.388Z,11.86
2019-04-10T10:58:15.488Z,11.88
2019-04-10T11:03:16.195Z,12.17
2019-04-10T11:08:13.726Z,11.75
2019-04-10T11:13:10.823Z,12.27
2019-04-10T11:18:08.461Z,12.68
2019-04-10T11:23:06.263Z,12.88
2019-04-10T11:28:12.541Z,12.87
2019-04-10T11:33:08.971Z,12.23
2019-04-10T11:38:09.318Z,12.90
2019-04-10T11:43:07.684Z,13.33
2019-04-10T11:48:07.864Z,13.28
2019-04-10T11:53:06.811Z,13.06
2019-04-10T11:58:05.548Z,13.28
2019-04-10T12:03:04.621Z,13.40
2019-04-10T12:08:28.421Z,13.72
2019-04-10T12:13:01.898Z,12.91
2019-04-10T12:18:00.948Z,13.04
2019-04-10T12:22:58.707Z,13.07
2019-04-10T12:27:59.687Z,13.13
2019-04-10T12:32:56.864Z,13.23
2019-04-10T12:38:02.301Z,12.80
2019-04-10T12:43:01.451Z,12.61
2019-04-10T12:47:58.639Z,12.34
2019-04-10T12:52:58.952Z,12.29
2019-04-10T12:58:06.637Z,12.51
2019-04-10T13:02:58.694Z,12.33
2019-04-10T13:07:56.153Z,11.45
2019-04-10T13:12:53.546Z,11.79
2019-04-10T13:17:56.994Z,11.90
2019-04-10T13:22:58.293Z,11.53
2019-04-10T13:27:57.530Z,11.63
2019-04-10T13:32:54.651Z,11.19
2019-04-10T13:37:54.812Z,11.37
2019-04-10T13:42:51.972Z,10.98
2019-04-10T13:47:49.656Z,11.19
2019-04-10T13:52:51.838Z,11.44
2019-04-10T13:57:50.877Z,11.91
2019-04-10T14:02:50.013Z,11.67
2019-04-10T14:07:47.000Z,12.16
2019-04-10T14:12:44.116Z,12.03
2019-04-10T14:17:41.730Z,11.57
2019-04-10T14:22:53.700Z,11.88
2019-04-10T14:27:56.399Z,11.31
2019-04-10T14:32:55.277Z,11.21
2019-04-10T14:37:54.652Z,11.12
2019-04-10T14:42:51.747Z,11.13
2019-04-10T14:47:51.923Z,11.12
2019-04-10T14:52:49.578Z,10.89
2019-04-10T14:57:47.410Z,10.56
2019-04-10T15:02:50.717Z,10.78
2019-04-10T15:07:51.086Z,10.93
2019-04-10T15:12:48.319Z,11.05
2019-04-10T15:17:48.626Z,10.98
2019-04-10T15:22:52.831Z,11.17
2019-04-10T15:27:56.559Z,11.32
2019-04-10T15:32:56.036Z,11.27
2019-04-10T15:37:55.471Z,10.78
2019-04-10T15:42:54.560Z,11.04
2019-04-10T15:47:54.587Z,11.17
2019-04-10T15:52:51.905Z,10.48
2019-04-10T15:57:53.824Z,10.97
2019-04-10T16:02:48.914Z,10.91
2019-04-10T16:07:46.934Z,10.89
2019-04-10T16:12:44.198Z,10.72
2019-04-10T16:17:44.040Z,10.67
2019-04-10T16:22:43.047Z,10.76
2019-04-10T16:27:41.231Z,10.61
2019-04-10T16:32:41.803Z,10.65
2019-04-10T16:37:43.922Z,10.76
2019-04-10T16:42:41.685Z,10.82
2019-04-10T16:47:39.082Z,10.78
2019-04-10T16:52:36.834Z,10.60
2019-04-10T16:57:34.550Z,10.63
2019-04-10T17:02:31.945Z,10.50
2019-04-10T17:07:29.080Z,10.51
2019-04-10T17:12:26.185Z,10.28
2019-04-10T17:17:23.365Z,10.42
2019-04-10T17:22:31.122Z,10.13
2019-04-10T17:27:19.949Z,10.15
2019-04-10T17:32:17.228Z,9.92
2019-04-10T17:37:15.737Z,9.75
2019-04-10T17:42:14.526Z,9.80
2019-04-10T17:47:12.506Z,9.91
2019-04-10T17:52:10.400Z,9.87
2019-04-10T17:57:08.643Z,9.97
2019-04-10T18:02:07.606Z,9.78
2019-04-10T18:07:05.892Z,9.74
2019-04-10T18:12:04.035Z,9.58
2019-04-10T18:17:02.643Z,9.64
2019-04-10T18:22:00.501Z,9.77
2019-04-10T18:27:02.411Z,9.74
2019-04-10T18:32:00.920Z,9.67
2019-04-10T18:36:58.430Z,9.83
2019-04-10T18:41:56.164Z,9.88
2019-04-10T18:46:57.097Z,9.87
2019-04-10T18:51:54.349Z,9.83
2019-04-10T18:56:51.961Z,9.66
2019-04-10T19:02:07.616Z,9.48
2019-04-10T19:07:05.557Z,9.63
2019-04-10T19:12:04.309Z,9.68
2019-04-10T19:17:06.769Z,9.49
2019-04-10T19:22:06.363Z,9.54
2019-04-10T19:27:07.415Z,9.41
2019-04-10T19:32:07.902Z,9.32
2019-04-10T19:37:06.227Z,9.48
2019-04-10T19:42:08.893Z,9.48
2019-04-10T19:47:10.458Z,9.42
2019-04-10T19:52:08.632Z,9.67
2019-04-10T19:57:06.856Z,9.64
2019-04-10T20:02:04.153Z,9.61
2019-04-10T20:07:01.148Z,9.72
2019-04-10T20:12:02.623Z,9.89
2019-04-10T20:16:59.772Z,9.76
2019-04-10T20:21:56.884Z,9.87
2019-04-10T20:26:53.961Z,9.96
2019-04-10T20:31:53.238Z,9.95
2019-04-10T20:36:53.219Z,9.71
2019-04-10T20:41:53.734Z,9.43
2019-04-10T20:46:49.021Z,9.32
2019-04-10T20:51:47.711Z,9.21
2019-04-10T20:56:46.533Z,9.40
2019-04-10T21:01:44.934Z,9.44
2019-04-10T21:06:43.596Z,9.14
2019-04-10T21:11:41.813Z,9.42
2019-04-10T21:16:40.019Z,9.51
2019-04-10T21:21:37.252Z,9.51
2019-04-10T21:26:34.666Z,9.30
2019-04-10T21:31:50.427Z,9.42
2019-04-10T21:36:51.202Z,9.41
2019-04-10T21:41:48.844Z,9.33
2019-04-10T21:46:46.695Z,9.28
2019-04-10T21:51:44.859Z,9.39
2019-04-10T21:56:43.078Z,9.52
2019-04-10T22:01:42.355Z,9.40
2019-04-10T22:06:41.283Z,9.61
2019-04-10T22:11:39.271Z,9.57
2019-04-10T22:16:37.936Z,9.60
2019-04-10T22:21:35.233Z,9.59
2019-04-10T22:26:33.951Z,9.61
2019-04-10T22:31:32.789Z,9.64
2019-04-10T22:36:31.743Z,9.60
2019-04-10T22:41:32.084Z,9.50
2019-04-10T22:46:27.897Z,9.47
2019-04-10T22:51:27.021Z,9.55
2019-04-10T22:56:25.197Z,9.64
2019-04-10T23:01:22.825Z,9.65
2019-04-10T23:06:20.815Z,9.46
2019-04-10T23:11:30.447Z,9.58
2019-04-10T23:16:19.921Z,9.60
2019-04-10T23:21:17.133Z,9.54
2019-04-10T23:26:17.283Z,9.40
2019-04-10T23:31:15.484Z,9.25
2019-04-10T23:36:12.521Z,9.38
2019-04-10T23:41:09.667Z,9.46
2019-04-10T23:46:06.750Z,9.60
2019-04-10T23:51:04.963Z,9.61
2019-04-10T23:56:02.202Z,9.31
